sensor_id;sensor_type;location;lat;lon;timestamp;pressure;altitude;pressure_sealevel;temperature;humidity
77725;BME280;66892;53.236;6.550;2023-07-13T00:00:50;101274.19;;;15.25;88.05
77725;BME280;66892;53.236;6.550;2023-07-13T00:03:17;101278.63;;;15.26;87.80
77725;BME280;66892;53.236;6.550;2023-07-13T00:05:43;101277.63;;;15.32;88.01
77725;BME280;66892;53.236;6.550;2023-07-13T00:08:10;101268.75;;;15.31;88.19
77725;BME280;66892;53.236;6.550;2023-07-13T00:10:40;101282.91;;;15.37;88.24
77725;BME280;66892;53.236;6.550;2023-07-13T00:13:07;101279.19;;;15.45;88.01
77725;BME280;66892;53.236;6.550;2023-07-13T00:15:34;101279.13;;;15.53;87.70
77725;BME280;66892;53.236;6.550;2023-07-13T00:18:01;101282.53;;;15.61;87.41
77725;BME280;66892;53.236;6.550;2023-07-13T00:20:28;101284.13;;;15.71;87.35
77725;BME280;66892;53.236;6.550;2023-07-13T00:22:55;101288.47;;;15.76;86.61
77725;BME280;66892;53.236;6.550;2023-07-13T00:25:21;101283.94;;;15.81;86.72
77725;BME280;66892;53.236;6.550;2023-07-13T00:27:50;101278.63;;;15.81;86.54
77725;BME280;66892;53.236;6.550;2023-07-13T00:30:17;101284.84;;;15.82;86.80
77725;BME280;66892;53.236;6.550;2023-07-13T00:32:43;101281.19;;;15.86;86.85
77725;BME280;66892;53.236;6.550;2023-07-13T00:35:10;101290.91;;;15.90;86.38
77725;BME280;66892;53.236;6.550;2023-07-13T00:37:38;101289.94;;;15.94;86.40
77725;BME280;66892;53.236;6.550;2023-07-13T00:40:05;101290.72;;;16.01;85.61
77725;BME280;66892;53.236;6.550;2023-07-13T00:42:32;101289.81;;;16.02;86.10
77725;BME280;66892;53.236;6.550;2023-07-13T00:45:06;101285.38;;;16.01;85.71
77725;BME280;66892;53.236;6.550;2023-07-13T00:47:33;101288.03;;;16.01;86.39
77725;BME280;66892;53.236;6.550;2023-07-13T00:49:59;101281.94;;;15.96;86.84
77725;BME280;66892;53.236;6.550;2023-07-13T00:52:26;101288.34;;;15.86;86.53
77725;BME280;66892;53.236;6.550;2023-07-13T00:54:55;101283.91;;;15.83;87.73
77725;BME280;66892;53.236;6.550;2023-07-13T00:57:22;101287.56;;;15.77;87.97
77725;BME280;66892;53.236;6.550;2023-07-13T00:59:52;101297.41;;;15.75;88.21
77725;BME280;66892;53.236;6.550;2023-07-13T01:02:19;101285.78;;;15.79;88.34
77725;BME280;66892;53.236;6.550;2023-07-13T01:04:45;101291.19;;;15.73;88.36
77725;BME280;66892;53.236;6.550;2023-07-13T01:07:12;101299.28;;;15.67;88.95
77725;BME280;66892;53.236;6.550;2023-07-13T01:09:38;101295.84;;;15.62;88.93
77725;BME280;66892;53.236;6.550;2023-07-13T01:12:07;101299.41;;;15.61;89.35
77725;BME280;66892;53.236;6.550;2023-07-13T01:14:33;101293.34;;;15.52;90.19
77725;BME280;66892;53.236;6.550;2023-07-13T01:17:00;101299.63;;;15.46;90.29
77725;BME280;66892;53.236;6.550;2023-07-13T01:19:33;101303.28;;;15.41;90.82
77725;BME280;66892;53.236;6.550;2023-07-13T01:22:07;101295.38;;;15.35;91.09
77725;BME280;66892;53.236;6.550;2023-07-13T01:24:35;101295.53;;;15.24;91.64
77725;BME280;66892;53.236;6.550;2023-07-13T01:27:02;101287.59;;;15.19;91.82
77725;BME280;66892;53.236;6.550;2023-07-13T01:29:30;101294.66;;;15.25;92.20
77725;BME280;66892;53.236;6.550;2023-07-13T01:31:57;101292.72;;;15.31;91.79
77725;BME280;66892;53.236;6.550;2023-07-13T01:34:23;101290.91;;;15.37;92.00
77725;BME280;66892;53.236;6.550;2023-07-13T01:36:49;101289.91;;;15.44;91.35
77725;BME280;66892;53.236;6.550;2023-07-13T01:39:21;101289.84;;;15.48;91.59
77725;BME280;66892;53.236;6.550;2023-07-13T01:41:48;101296.00;;;15.52;91.32
77725;BME280;66892;53.236;6.550;2023-07-13T01:44:14;101293.25;;;15.58;91.03
77725;BME280;66892;53.236;6.550;2023-07-13T01:46:40;101301.19;;;15.61;90.77
77725;BME280;66892;53.236;6.550;2023-07-13T01:49:06;101302.94;;;15.62;90.27
77725;BME280;66892;53.236;6.550;2023-07-13T01:51:32;101305.59;;;15.63;90.43
77725;BME280;66892;53.236;6.550;2023-07-13T01:53:59;101300.22;;;15.66;89.98
77725;BME280;66892;53.236;6.550;2023-07-13T01:56:26;101294.84;;;15.68;89.77
77725;BME280;66892;53.236;6.550;2023-07-13T01:58:52;101295.72;;;15.68;89.53
77725;BME280;66892;53.236;6.550;2023-07-13T02:01:18;101295.66;;;15.73;89.00
77725;BME280;66892;53.236;6.550;2023-07-13T02:03:45;101301.00;;;15.71;88.87
77725;BME280;66892;53.236;6.550;2023-07-13T02:06:12;101296.56;;;15.72;88.58
77725;BME280;66892;53.236;6.550;2023-07-13T02:08:40;101306.41;;;15.68;88.77
77725;BME280;66892;53.236;6.550;2023-07-13T02:11:06;101297.66;;;15.60;89.04
77725;BME280;66892;53.236;6.550;2023-07-13T02:13:34;101304.00;;;15.52;89.37
77725;BME280;66892;53.236;6.550;2023-07-13T02:16:01;101304.94;;;15.49;89.32
77725;BME280;66892;53.236;6.550;2023-07-13T02:18:27;101304.13;;;15.41;89.49
77725;BME280;66892;53.236;6.550;2023-07-13T02:20:53;101302.53;;;15.29;90.39
77725;BME280;66892;53.236;6.550;2023-07-13T02:23:19;101300.00;;;15.22;90.89
77725;BME280;66892;53.236;6.550;2023-07-13T02:25:45;101300.97;;;15.18;91.48
77725;BME280;66892;53.236;6.550;2023-07-13T02:28:12;101300.06;;;15.17;91.02
77725;BME280;66892;53.236;6.550;2023-07-13T02:30:39;101301.06;;;15.12;91.68
77725;BME280;66892;53.236;6.550;2023-07-13T02:33:05;101300.25;;;15.05;92.12
77725;BME280;66892;53.236;6.550;2023-07-13T02:35:31;101300.38;;;14.96;92.32
77725;BME280;66892;53.236;6.550;2023-07-13T02:37:58;101298.69;;;14.91;92.35
77725;BME280;66892;53.236;6.550;2023-07-13T02:40:24;101300.56;;;14.83;92.57
77725;BME280;66892;53.236;6.550;2023-07-13T02:42:50;101295.38;;;14.70;93.42
77725;BME280;66892;53.236;6.550;2023-07-13T02:45:17;101298.13;;;14.64;93.77
77725;BME280;66892;53.236;6.550;2023-07-13T02:47:44;101298.22;;;14.58;94.03
77725;BME280;66892;53.236;6.550;2023-07-13T02:50:10;101297.44;;;14.49;94.50
77725;BME280;66892;53.236;6.550;2023-07-13T02:52:36;101300.19;;;14.43;95.38
77725;BME280;66892;53.236;6.550;2023-07-13T02:55:03;101295.78;;;14.39;95.48
77725;BME280;66892;53.236;6.550;2023-07-13T02:57:29;101289.66;;;14.31;96.25
77725;BME280;66892;53.236;6.550;2023-07-13T02:59:56;101301.22;;;14.28;96.68
77725;BME280;66892;53.236;6.550;2023-07-13T03:02:22;101302.97;;;14.29;97.01
77725;BME280;66892;53.236;6.550;2023-07-13T03:04:50;101298.59;;;14.25;97.24
77725;BME280;66892;53.236;6.550;2023-07-13T03:07:16;101296.84;;;14.21;97.88
77725;BME280;66892;53.236;6.550;2023-07-13T03:09:42;101297.78;;;14.17;98.38
77725;BME280;66892;53.236;6.550;2023-07-13T03:12:08;101296.84;;;14.21;99.80
77725;BME280;66892;53.236;6.550;2023-07-13T03:14:35;101299.53;;;14.21;99.50
77725;BME280;66892;53.236;6.550;2023-07-13T03:17:01;101303.03;;;14.23;100.00
77725;BME280;66892;53.236;6.550;2023-07-13T03:19:27;101303.94;;;14.20;100.00
77725;BME280;66892;53.236;6.550;2023-07-13T03:21:54;101304.84;;;14.21;100.00
77725;BME280;66892;53.236;6.550;2023-07-13T03:24:21;101310.22;;;14.15;100.00
77725;BME280;66892;53.236;6.550;2023-07-13T03:26:49;101308.50;;;14.12;100.00
77725;BME280;66892;53.236;6.550;2023-07-13T03:29:15;101305.75;;;14.18;100.00
77725;BME280;66892;53.236;6.550;2023-07-13T03:31:41;101313.75;;;14.18;100.00
77725;BME280;66892;53.236;6.550;2023-07-13T03:34:07;101317.28;;;14.17;100.00
77725;BME280;66892;53.236;6.550;2023-07-13T03:36:34;101318.00;;;14.38;100.00
77725;BME280;66892;53.236;6.550;2023-07-13T03:39:03;101315.97;;;14.59;100.00
77725;BME280;66892;53.236;6.550;2023-07-13T03:41:29;101319.31;;;14.75;100.00
77725;BME280;66892;53.236;6.550;2023-07-13T03:43:57;101319.09;;;14.90;100.00
77725;BME280;66892;53.236;6.550;2023-07-13T03:46:23;101319.00;;;14.99;100.00
77725;BME280;66892;53.236;6.550;2023-07-13T03:48:50;101320.63;;;15.08;100.00
77725;BME280;66892;53.236;6.550;2023-07-13T03:51:16;101317.00;;;15.15;100.00
77725;BME280;66892;53.236;6.550;2023-07-13T03:53:44;101321.34;;;15.20;99.29
77725;BME280;66892;53.236;6.550;2023-07-13T03:56:12;101317.75;;;15.23;99.08
77725;BME280;66892;53.236;6.550;2023-07-13T03:58:42;101323.06;;;15.24;98.70
77725;BME280;66892;53.236;6.550;2023-07-13T04:01:10;101323.84;;;15.31;98.30
77725;BME280;66892;53.236;6.550;2023-07-13T04:03:38;101323.91;;;15.28;98.32
77725;BME280;66892;53.236;6.550;2023-07-13T04:06:06;101332.88;;;15.21;98.50
77725;BME280;66892;53.236;6.550;2023-07-13T04:08:35;101337.34;;;15.19;98.70
77725;BME280;66892;53.236;6.550;2023-07-13T04:11:04;101325.97;;;15.08;99.29
77725;BME280;66892;53.236;6.550;2023-07-13T04:13:31;101334.09;;;14.97;99.97
77725;BME280;66892;53.236;6.550;2023-07-13T04:15:58;101335.06;;;14.90;100.00
77725;BME280;66892;53.236;6.550;2023-07-13T04:18:24;101332.50;;;14.84;100.00
77725;BME280;66892;53.236;6.550;2023-07-13T04:20:50;101339.63;;;14.82;100.00
77725;BME280;66892;53.236;6.550;2023-07-13T04:23:16;101340.56;;;14.80;100.00
77725;BME280;66892;53.236;6.550;2023-07-13T04:25:43;101344.06;;;14.82;100.00
77725;BME280;66892;53.236;6.550;2023-07-13T04:28:10;101352.94;;;14.82;100.00
77725;BME280;66892;53.236;6.550;2023-07-13T04:30:37;101347.53;;;14.88;100.00
77725;BME280;66892;53.236;6.550;2023-07-13T04:33:04;101350.25;;;14.85;100.00
77725;BME280;66892;53.236;6.550;2023-07-13T04:35:30;101353.81;;;14.83;100.00
77725;BME280;66892;53.236;6.550;2023-07-13T04:37:57;101359.97;;;14.89;100.00
77725;BME280;66892;53.236;6.550;2023-07-13T04:40:23;101361.56;;;15.01;100.00
77725;BME280;66892;53.236;6.550;2023-07-13T04:42:49;101354.38;;;15.07;100.00
77725;BME280;66892;53.236;6.550;2023-07-13T04:45:16;101359.63;;;15.15;100.00
77725;BME280;66892;53.236;6.550;2023-07-13T04:47:44;101362.25;;;15.16;100.00
77725;BME280;66892;53.236;6.550;2023-07-13T04:50:12;101360.38;;;15.23;100.00
77725;BME280;66892;53.236;6.550;2023-07-13T04:52:41;101362.09;;;15.27;100.00
77725;BME280;66892;53.236;6.550;2023-07-13T04:55:08;101367.34;;;15.31;100.00
77725;BME280;66892;53.236;6.550;2023-07-13T04:57:34;101363.63;;;15.43;100.00
77725;BME280;66892;53.236;6.550;2023-07-13T05:00:00;101364.47;;;15.48;100.00
77725;BME280;66892;53.236;6.550;2023-07-13T05:02:30;101370.63;;;15.53;100.00
77725;BME280;66892;53.236;6.550;2023-07-13T05:04:59;101374.00;;;15.66;99.59
77725;BME280;66892;53.236;6.550;2023-07-13T05:07:25;101374.41;;;15.95;98.82
77725;BME280;66892;53.236;6.550;2023-07-13T05:09:53;101371.66;;;16.95;94.71
77725;BME280;66892;53.236;6.550;2023-07-13T05:12:19;101370.34;;;17.89;89.01
77725;BME280;66892;53.236;6.550;2023-07-13T05:14:45;101370.72;;;18.75;85.43
77725;BME280;66892;53.236;6.550;2023-07-13T05:17:11;101372.94;;;19.52;80.34
77725;BME280;66892;53.236;6.550;2023-07-13T05:19:37;101376.88;;;19.94;76.63
77725;BME280;66892;53.236;6.550;2023-07-13T05:22:05;101380.38;;;20.49;73.99
77725;BME280;66892;53.236;6.550;2023-07-13T05:24:31;101373.84;;;21.04;71.67
77725;BME280;66892;53.236;6.550;2023-07-13T05:26:57;101377.56;;;21.48;69.76
77725;BME280;66892;53.236;6.550;2023-07-13T05:29:24;101382.59;;;21.79;67.43
77725;BME280;66892;53.236;6.550;2023-07-13T05:31:50;101390.38;;;22.08;66.92
77725;BME280;66892;53.236;6.550;2023-07-13T05:34:16;101377.19;;;22.42;64.62
77725;BME280;66892;53.236;6.550;2023-07-13T05:36:43;101388.31;;;22.55;63.64
77725;BME280;66892;53.236;6.550;2023-07-13T05:39:10;101388.78;;;23.05;62.84
77725;BME280;66892;53.236;6.550;2023-07-13T05:41:37;101392.22;;;23.65;61.01
77725;BME280;66892;53.236;6.550;2023-07-13T05:44:03;101380.19;;;24.07;58.60
77725;BME280;66892;53.236;6.550;2023-07-13T05:46:29;101390.91;;;24.09;58.11
77725;BME280;66892;53.236;6.550;2023-07-13T05:48:56;101401.53;;;24.48;57.32
77725;BME280;66892;53.236;6.550;2023-07-13T05:51:22;101391.97;;;24.92;55.77
77725;BME280;66892;53.236;6.550;2023-07-13T05:53:49;101402.81;;;25.08;53.08
77725;BME280;66892;53.236;6.550;2023-07-13T05:56:16;101406.88;;;25.16;52.92
77725;BME280;66892;53.236;6.550;2023-07-13T05:58:42;101409.94;;;24.76;55.20
77725;BME280;66892;53.236;6.550;2023-07-13T06:01:11;101410.94;;;25.08;54.16
77725;BME280;66892;53.236;6.550;2023-07-13T06:03:37;101417.19;;;25.26;53.39
77725;BME280;66892;53.236;6.550;2023-07-13T06:06:04;101417.28;;;24.74;54.68
77725;BME280;66892;53.236;6.550;2023-07-13T06:08:31;101414.69;;;25.05;54.11
77725;BME280;66892;53.236;6.550;2023-07-13T06:11:02;101417.03;;;25.29;53.31
77725;BME280;66892;53.236;6.550;2023-07-13T06:13:30;101409.44;;;25.68;51.93
77725;BME280;66892;53.236;6.550;2023-07-13T06:15:56;101411.38;;;26.27;51.01
77725;BME280;66892;53.236;6.550;2023-07-13T06:18:22;101417.69;;;26.87;48.54
77725;BME280;66892;53.236;6.550;2023-07-13T06:20:49;101420.44;;;27.44;47.63
77725;BME280;66892;53.236;6.550;2023-07-13T06:23:15;101424.19;;;27.69;46.25
77725;BME280;66892;53.236;6.550;2023-07-13T06:25:41;101421.03;;;27.90;45.23
77725;BME280;66892;53.236;6.550;2023-07-13T06:28:08;101419.00;;;28.20;44.27
77725;BME280;66892;53.236;6.550;2023-07-13T06:30:37;101426.00;;;28.24;43.28
77725;BME280;66892;53.236;6.550;2023-07-13T06:33:04;101422.88;;;28.43;43.32
77725;BME280;66892;53.236;6.550;2023-07-13T06:35:30;101428.84;;;28.74;42.71
77725;BME280;66892;53.236;6.550;2023-07-13T06:37:56;101413.41;;;28.88;42.17
77725;BME280;66892;53.236;6.550;2023-07-13T06:40:22;101423.75;;;29.46;41.59
77725;BME280;66892;53.236;6.550;2023-07-13T06:42:48;101434.91;;;29.79;41.45
77725;BME280;66892;53.236;6.550;2023-07-13T06:45:14;101434.88;;;28.80;41.03
77725;BME280;66892;53.236;6.550;2023-07-13T06:47:42;101434.44;;;29.23;41.12
77725;BME280;66892;53.236;6.550;2023-07-13T06:50:09;101431.53;;;29.26;40.34
77725;BME280;66892;53.236;6.550;2023-07-13T06:52:35;101442.41;;;28.62;41.89
77725;BME280;66892;53.236;6.550;2023-07-13T06:55:02;101450.16;;;27.88;43.60
77725;BME280;66892;53.236;6.550;2023-07-13T06:57:28;101454.84;;;27.15;43.11
77725;BME280;66892;53.236;6.550;2023-07-13T06:59:54;101449.22;;;27.74;41.95
77725;BME280;66892;53.236;6.550;2023-07-13T07:02:20;101455.56;;;28.82;40.69
77725;BME280;66892;53.236;6.550;2023-07-13T07:04:47;101455.53;;;29.70;38.23
77725;BME280;66892;53.236;6.550;2023-07-13T07:07:14;101448.44;;;30.17;36.32
77725;BME280;66892;53.236;6.550;2023-07-13T07:09:40;101449.50;;;30.86;36.23
77725;BME280;66892;53.236;6.550;2023-07-13T07:12:07;101448.09;;;30.21;36.18
77725;BME280;66892;53.236;6.550;2023-07-13T07:14:33;101451.66;;;29.11;39.04
77725;BME280;66892;53.236;6.550;2023-07-13T07:17:00;101453.25;;;27.55;42.43
77725;BME280;66892;53.236;6.550;2023-07-13T07:19:27;101448.50;;;26.86;44.21
77725;BME280;66892;53.236;6.550;2023-07-13T07:21:54;101449.19;;;25.35;47.39
77725;BME280;66892;53.236;6.550;2023-07-13T07:24:21;101451.03;;;23.95;49.97
77725;BME280;66892;53.236;6.550;2023-07-13T07:26:47;101466.03;;;23.26;51.85
77725;BME280;66892;53.236;6.550;2023-07-13T07:29:13;101459.00;;;24.17;50.43
77725;BME280;66892;53.236;6.550;2023-07-13T07:31:39;101456.69;;;26.25;45.86
77725;BME280;66892;53.236;6.550;2023-07-13T07:34:05;101468.38;;;28.14;42.09
77725;BME280;66892;53.236;6.550;2023-07-13T07:36:32;101475.91;;;29.77;36.29
77725;BME280;66892;53.236;6.550;2023-07-13T07:38:59;101473.69;;;29.34;36.75
77725;BME280;66892;53.236;6.550;2023-07-13T07:41:25;101471.97;;;28.14;39.59
77725;BME280;66892;53.236;6.550;2023-07-13T07:43:51;101477.00;;;28.20;38.86
77725;BME280;66892;53.236;6.550;2023-07-13T07:46:18;101465.50;;;27.18;40.47
77725;BME280;66892;53.236;6.550;2023-07-13T07:48:44;101478.25;;;27.60;40.93
77725;BME280;66892;53.236;6.550;2023-07-13T07:51:10;101471.13;;;26.71;42.16
77725;BME280;66892;53.236;6.550;2023-07-13T07:53:36;101482.06;;;25.77;44.58
77725;BME280;66892;53.236;6.550;2023-07-13T07:56:04;101472.56;;;24.69;47.98
77725;BME280;66892;53.236;6.550;2023-07-13T07:58:30;101472.59;;;23.78;50.77
77725;BME280;66892;53.236;6.550;2023-07-13T08:01:02;101470.22;;;23.13;53.72
77725;BME280;66892;53.236;6.550;2023-07-13T08:03:28;101478.47;;;22.70;55.23
77725;BME280;66892;53.236;6.550;2023-07-13T08:05:54;101488.34;;;22.05;55.84
77725;BME280;66892;53.236;6.550;2023-07-13T08:08:21;101484.25;;;21.49;57.70
77725;BME280;66892;53.236;6.550;2023-07-13T08:10:47;101485.69;;;21.11;58.19
77725;BME280;66892;53.236;6.550;2023-07-13T08:13:14;101499.78;;;20.93;57.89
77725;BME280;66892;53.236;6.550;2023-07-13T08:15:41;101493.34;;;20.97;57.42
77725;BME280;66892;53.236;6.550;2023-07-13T08:18:07;101485.66;;;21.13;57.21
77725;BME280;66892;53.236;6.550;2023-07-13T08:20:37;101483.38;;;21.48;54.94
77725;BME280;66892;53.236;6.550;2023-07-13T08:23:03;101488.31;;;21.61;52.72
77725;BME280;66892;53.236;6.550;2023-07-13T08:25:29;101486.94;;;21.95;52.93
77725;BME280;66892;53.236;6.550;2023-07-13T08:27:55;101494.19;;;21.93;54.16
77725;BME280;66892;53.236;6.550;2023-07-13T08:30:23;101495.03;;;21.72;58.06
77725;BME280;66892;53.236;6.550;2023-07-13T08:32:49;101502.72;;;21.12;59.58
77725;BME280;66892;53.236;6.550;2023-07-13T08:35:15;101503.72;;;20.57;64.68
77725;BME280;66892;53.236;6.550;2023-07-13T08:37:42;101500.41;;;20.21;67.80
77725;BME280;66892;53.236;6.550;2023-07-13T08:40:10;101504.91;;;19.92;69.59
77725;BME280;66892;53.236;6.550;2023-07-13T08:42:39;101499.84;;;19.83;71.56
77725;BME280;66892;53.236;6.550;2023-07-13T08:45:23;101494.84;;;19.71;71.47
77725;BME280;66892;53.236;6.550;2023-07-13T08:47:54;101491.69;;;19.86;73.12
77725;BME280;66892;53.236;6.550;2023-07-13T08:50:31;101492.72;;;20.64;70.16
77725;BME280;66892;53.236;6.550;2023-07-13T08:53:01;101494.88;;;21.29;67.41
77725;BME280;66892;53.236;6.550;2023-07-13T08:55:31;101478.56;;;24.03;60.83
77725;BME280;66892;53.236;6.550;2023-07-13T08:58:03;101478.19;;;26.44;52.53
77725;BME280;66892;53.236;6.550;2023-07-13T09:00:39;101475.31;;;26.31;51.62
77725;BME280;66892;53.236;6.550;2023-07-13T09:03:15;101477.88;;;25.22;52.60
77725;BME280;66892;53.236;6.550;2023-07-13T09:05:48;101482.19;;;24.40;55.04
77725;BME280;66892;53.236;6.550;2023-07-13T09:08:33;101484.34;;;23.38;56.24
77725;BME280;66892;53.236;6.550;2023-07-13T09:11:12;101476.88;;;22.64;58.23
77725;BME280;66892;53.236;6.550;2023-07-13T09:13:43;101482.13;;;22.03;60.66
77725;BME280;66892;53.236;6.550;2023-07-13T09:16:12;101493.91;;;21.54;62.42
77725;BME280;66892;53.236;6.550;2023-07-13T09:18:42;101493.16;;;21.51;64.42
77725;BME280;66892;53.236;6.550;2023-07-13T09:21:14;101486.56;;;22.26;61.39
77725;BME280;66892;53.236;6.550;2023-07-13T09:23:42;101490.75;;;24.48;55.87
77725;BME280;66892;53.236;6.550;2023-07-13T09:26:13;101470.56;;;26.80;46.50
77725;BME280;66892;53.236;6.550;2023-07-13T09:28:42;101472.47;;;26.78;45.12
77725;BME280;66892;53.236;6.550;2023-07-13T09:31:13;101486.03;;;28.48;42.48
77725;BME280;66892;53.236;6.550;2023-07-13T09:33:41;101478.28;;;28.15;42.91
77725;BME280;66892;53.236;6.550;2023-07-13T09:36:22;101477.16;;;26.31;43.59
77725;BME280;66892;53.236;6.550;2023-07-13T09:38:58;101476.69;;;25.76;44.42
77725;BME280;66892;53.236;6.550;2023-07-13T09:41:29;101493.81;;;24.59;46.69
77725;BME280;66892;53.236;6.550;2023-07-13T09:44:01;101493.16;;;23.62;49.13
77725;BME280;66892;53.236;6.550;2023-07-13T09:46:27;101499.25;;;22.88;50.56
77725;BME280;66892;53.236;6.550;2023-07-13T09:48:55;101503.47;;;22.51;52.39
77725;BME280;66892;53.236;6.550;2023-07-13T09:51:22;101488.25;;;22.29;52.92
77725;BME280;66892;53.236;6.550;2023-07-13T09:53:49;101494.13;;;22.38;54.06
77725;BME280;66892;53.236;6.550;2023-07-13T09:56:23;101502.44;;;22.34;52.95
77725;BME280;66892;53.236;6.550;2023-07-13T09:58:50;101507.44;;;22.21;52.96
77725;BME280;66892;53.236;6.550;2023-07-13T10:01:31;101508.00;;;21.84;53.72
77725;BME280;66892;53.236;6.550;2023-07-13T10:03:59;101515.66;;;21.48;54.20
77725;BME280;66892;53.236;6.550;2023-07-13T10:06:25;101526.56;;;21.21;53.66
77725;BME280;66892;53.236;6.550;2023-07-13T10:08:56;101529.03;;;21.02;53.81
77725;BME280;66892;53.236;6.550;2023-07-13T10:11:25;101530.47;;;21.37;53.24
77725;BME280;66892;53.236;6.550;2023-07-13T10:13:53;101522.38;;;24.29;46.69
77725;BME280;66892;53.236;6.550;2023-07-13T10:16:22;101518.22;;;24.57;43.93
77725;BME280;66892;53.236;6.550;2023-07-13T10:18:50;101521.94;;;24.00;45.40
77725;BME280;66892;53.236;6.550;2023-07-13T10:21:20;101535.84;;;23.54;45.64
77725;BME280;66892;53.236;6.550;2023-07-13T10:23:51;101536.50;;;24.70;43.61
77725;BME280;66892;53.236;6.550;2023-07-13T10:26:23;101525.31;;;26.57;39.71
77725;BME280;66892;53.236;6.550;2023-07-13T10:28:53;101525.50;;;28.00;37.26
77725;BME280;66892;53.236;6.550;2023-07-13T10:31:21;101526.25;;;28.96;35.65
77725;BME280;66892;53.236;6.550;2023-07-13T10:33:48;101536.25;;;29.73;33.56
77725;BME280;66892;53.236;6.550;2023-07-13T10:36:23;101535.16;;;28.73;33.75
77725;BME280;66892;53.236;6.550;2023-07-13T10:38:55;101531.94;;;27.56;36.49
77725;BME280;66892;53.236;6.550;2023-07-13T10:41:24;101541.13;;;26.19;39.29
77725;BME280;66892;53.236;6.550;2023-07-13T10:43:54;101545.41;;;24.90;42.12
77725;BME280;66892;53.236;6.550;2023-07-13T10:46:24;101542.75;;;25.57;39.27
77725;BME280;66892;53.236;6.550;2023-07-13T10:48:56;101540.03;;;26.84;37.20
77725;BME280;66892;53.236;6.550;2023-07-13T10:51:27;101528.38;;;27.97;35.40
77725;BME280;66892;53.236;6.550;2023-07-13T10:54:14;101544.88;;;28.90;33.34
77725;BME280;66892;53.236;6.550;2023-07-13T10:56:43;101538.44;;;29.30;32.80
77725;BME280;66892;53.236;6.550;2023-07-13T10:59:12;101538.41;;;29.80;31.31
77725;BME280;66892;53.236;6.550;2023-07-13T11:01:48;101539.22;;;29.83;31.86
77725;BME280;66892;53.236;6.550;2023-07-13T11:04:16;101548.41;;;30.18;31.40
77725;BME280;66892;53.236;6.550;2023-07-13T11:06:47;101535.75;;;30.17;30.46
77725;BME280;66892;53.236;6.550;2023-07-13T11:09:30;101548.28;;;30.19;31.06
77725;BME280;66892;53.236;6.550;2023-07-13T11:11:59;101553.56;;;29.21;32.70
77725;BME280;66892;53.236;6.550;2023-07-13T11:14:29;101547.72;;;28.06;34.82
77725;BME280;66892;53.236;6.550;2023-07-13T11:16:55;101558.50;;;27.94;35.67
77725;BME280;66892;53.236;6.550;2023-07-13T11:19:39;101546.25;;;28.56;33.21
77725;BME280;66892;53.236;6.550;2023-07-13T11:22:25;101548.22;;;27.85;33.18
77725;BME280;66892;53.236;6.550;2023-07-13T11:24:57;101562.44;;;26.25;37.27
77725;BME280;66892;53.236;6.550;2023-07-13T11:27:35;101562.66;;;25.39;39.50
77725;BME280;66892;53.236;6.550;2023-07-13T11:30:21;101560.66;;;26.08;38.62
77725;BME280;66892;53.236;6.550;2023-07-13T11:32:51;101559.69;;;27.17;36.79
77725;BME280;66892;53.236;6.550;2023-07-13T11:35:23;101556.09;;;27.47;35.60
77725;BME280;66892;53.236;6.550;2023-07-13T11:37:53;101553.53;;;28.00;35.61
77725;BME280;66892;53.236;6.550;2023-07-13T11:40:22;101562.97;;;28.23;35.37
77725;BME280;66892;53.236;6.550;2023-07-13T11:42:52;101569.19;;;27.68;35.93
77725;BME280;66892;53.236;6.550;2023-07-13T11:45:24;101567.31;;;26.81;36.83
77725;BME280;66892;53.236;6.550;2023-07-13T11:47:50;101572.63;;;26.98;36.57
77725;BME280;66892;53.236;6.550;2023-07-13T11:50:18;101558.09;;;26.38;37.90
77725;BME280;66892;53.236;6.550;2023-07-13T11:52:45;101554.56;;;26.52;37.82
77725;BME280;66892;53.236;6.550;2023-07-13T11:55:16;101574.44;;;26.37;38.29
77725;BME280;66892;53.236;6.550;2023-07-13T11:57:47;101578.09;;;25.37;39.54
77725;BME280;66892;53.236;6.550;2023-07-13T12:00:17;101585.75;;;24.95;40.72
77725;BME280;66892;53.236;6.550;2023-07-13T12:02:46;101576.53;;;25.50;40.98
77725;BME280;66892;53.236;6.550;2023-07-13T12:05:16;101572.88;;;25.84;39.07
77725;BME280;66892;53.236;6.550;2023-07-13T12:07:44;101564.84;;;25.98;38.70
77725;BME280;66892;53.236;6.550;2023-07-13T12:10:19;101573.50;;;26.05;39.62
77725;BME280;66892;53.236;6.550;2023-07-13T12:12:47;101574.91;;;25.46;39.94
77725;BME280;66892;53.236;6.550;2023-07-13T12:15:14;101575.75;;;25.14;40.14
77725;BME280;66892;53.236;6.550;2023-07-13T12:17:41;101589.56;;;25.08;39.22
77725;BME280;66892;53.236;6.550;2023-07-13T12:20:19;101595.88;;;25.43;40.39
77725;BME280;66892;53.236;6.550;2023-07-13T12:22:47;101594.44;;;25.53;40.59
77725;BME280;66892;53.236;6.550;2023-07-13T12:25:13;101602.38;;;25.04;40.34
77725;BME280;66892;53.236;6.550;2023-07-13T12:27:42;101595.63;;;25.30;40.18
77725;BME280;66892;53.236;6.550;2023-07-13T12:30:25;101596.09;;;25.21;40.96
77725;BME280;66892;53.236;6.550;2023-07-13T12:33:00;101598.44;;;25.46;41.21
77725;BME280;66892;53.236;6.550;2023-07-13T12:35:29;101603.09;;;25.77;38.11
77725;BME280;66892;53.236;6.550;2023-07-13T12:37:57;101619.22;;;25.45;39.18
77725;BME280;66892;53.236;6.550;2023-07-13T12:40:31;101653.50;;;24.93;41.43
77725;BME280;66892;53.236;6.550;2023-07-13T12:43:00;101630.31;;;24.88;41.41
77725;BME280;66892;53.236;6.550;2023-07-13T12:45:30;101634.34;;;24.60;40.74
77725;BME280;66892;53.236;6.550;2023-07-13T12:47:58;101640.00;;;24.19;41.56
77725;BME280;66892;53.236;6.550;2023-07-13T12:50:30;101645.38;;;23.80;42.56
77725;BME280;66892;53.236;6.550;2023-07-13T12:53:02;101640.16;;;23.56;44.47